createdAt,value
2023-05-18T00:01:40.781Z,8.51
2023-05-18T00:04:10.036Z,8.51
2023-05-18T00:06:37.954Z,8.48
2023-05-18T00:09:05.592Z,8.35
2023-05-18T00:11:34.854Z,8.41
2023-05-18T00:14:03.327Z,8.57
2023-05-18T00:16:31.230Z,8.42
2023-05-18T00:18:59.459Z,8.29
2023-05-18T00:21:30.612Z,8.46
2023-05-18T00:23:58.465Z,8.36
2023-05-18T00:26:26.740Z,8.24
2023-05-18T00:28:55.908Z,8.13
2023-05-18T00:31:23.718Z,8.22
2023-05-18T00:33:51.700Z,8.23
2023-05-18T00:36:19.376Z,8.16
2023-05-18T00:38:47.061Z,8.02
2023-05-18T00:41:14.725Z,7.95
2023-05-18T00:43:43.449Z,7.90
2023-05-18T00:46:12.674Z,7.86
2023-05-18T00:48:40.440Z,7.86
2023-05-18T00:51:08.184Z,7.79
2023-05-18T00:53:37.050Z,7.87
2023-05-18T00:56:05.145Z,7.81
2023-05-18T00:58:32.869Z,7.79
2023-05-18T01:01:02.655Z,7.87
2023-05-18T01:03:31.696Z,7.87
2023-05-18T01:05:59.356Z,7.83
2023-05-18T01:08:28.331Z,7.88
2023-05-18T01:11:08.188Z,7.80
2023-05-18T01:13:42.204Z,7.85
2023-05-18T01:16:14.044Z,7.89
2023-05-18T01:18:49.126Z,7.87
2023-05-18T01:21:25.491Z,7.79
2023-05-18T01:24:09.469Z,7.79
2023-05-18T01:26:41.259Z,7.74
2023-05-18T01:29:11.484Z,7.71
2023-05-18T01:31:39.844Z,7.68
2023-05-18T01:34:07.678Z,7.76
2023-05-18T01:36:35.623Z,7.69
2023-05-18T01:39:03.645Z,7.70
2023-05-18T01:41:36.374Z,7.52
2023-05-18T01:44:12.736Z,7.53
2023-05-18T01:46:47.678Z,7.37
2023-05-18T01:49:21.700Z,7.29
2023-05-18T01:51:52.234Z,7.40
2023-05-18T01:54:22.067Z,7.24
2023-05-18T01:56:51.788Z,7.41
2023-05-18T01:59:22.182Z,7.39
2023-05-18T02:01:49.916Z,7.32
2023-05-18T02:04:17.695Z,7.14
2023-05-18T02:06:45.502Z,7.20
2023-05-18T02:09:13.291Z,7.08
2023-05-18T02:11:41.368Z,7.15
2023-05-18T02:14:09.046Z,7.05
2023-05-18T02:16:38.079Z,7.02
2023-05-18T02:19:05.903Z,6.96
2023-05-18T02:21:34.619Z,7.03
2023-05-18T02:24:02.347Z,7.08
2023-05-18T02:26:30.090Z,7.09
2023-05-18T02:28:57.690Z,7.00
2023-05-18T02:31:27.273Z,6.95
2023-05-18T02:33:57.036Z,6.89
2023-05-18T02:36:24.826Z,6.82
2023-05-18T02:38:52.675Z,6.88
2023-05-18T02:41:21.070Z,6.89
2023-05-18T02:43:48.700Z,6.97
2023-05-18T02:46:16.716Z,6.87
2023-05-18T02:48:45.652Z,6.77
2023-05-18T02:51:14.923Z,6.74
2023-05-18T02:53:44.248Z,6.85
2023-05-18T02:56:12.324Z,6.77
2023-05-18T02:58:40.107Z,6.80
2023-05-18T03:01:08.593Z,6.79
2023-05-18T03:03:36.714Z,6.85
2023-05-18T03:06:06.026Z,6.71
2023-05-18T03:08:37.052Z,6.66
2023-05-18T03:11:05.140Z,6.56
2023-05-18T03:13:33.039Z,6.73
2023-05-18T03:16:00.629Z,6.67
2023-05-18T03:18:31.484Z,6.70
2023-05-18T03:21:01.951Z,6.80
2023-05-18T03:23:30.169Z,6.71
2023-05-18T03:25:59.198Z,6.56
2023-05-18T03:28:26.879Z,6.49
2023-05-18T03:30:54.544Z,6.53
2023-05-18T03:33:22.195Z,6.64
2023-05-18T03:35:50.288Z,6.57
2023-05-18T03:38:17.977Z,6.67
2023-05-18T03:40:45.694Z,6.64
2023-05-18T03:43:14.602Z,6.49
2023-05-18T03:45:42.353Z,6.59
2023-05-18T03:48:10.175Z,6.57
2023-05-18T03:50:37.874Z,6.60
2023-05-18T03:53:05.476Z,6.61
2023-05-18T03:55:33.226Z,6.56
2023-05-18T03:58:00.925Z,6.67
2023-05-18T04:00:30.328Z,6.61
2023-05-18T04:02:57.964Z,6.72
2023-05-18T04:05:25.863Z,6.56
2023-05-18T04:07:53.454Z,6.45
2023-05-18T04:10:21.966Z,6.56
2023-05-18T04:12:50.058Z,6.59
2023-05-18T04:15:17.978Z,6.58
2023-05-18T04:17:47.145Z,6.65
2023-05-18T04:20:16.314Z,6.72
2023-05-18T04:22:48.010Z,7.00
2023-05-18T04:25:16.065Z,7.73
2023-05-18T04:27:45.308Z,8.39
2023-05-18T04:30:15.069Z,9.71
2023-05-18T04:32:43.748Z,10.26
2023-05-18T04:35:13.089Z,11.01
2023-05-18T04:37:41.291Z,11.85
2023-05-18T04:40:14.580Z,11.66
2023-05-18T04:42:45.474Z,11.81
2023-05-18T04:45:15.718Z,12.67
2023-05-18T04:47:46.507Z,13.50
2023-05-18T04:50:19.321Z,12.94
2023-05-18T04:52:49.069Z,12.19
2023-05-18T04:55:22.840Z,12.77
2023-05-18T04:57:51.097Z,13.37
2023-05-18T05:00:19.617Z,13.42
2023-05-18T05:02:47.311Z,13.58
2023-05-18T05:05:20.641Z,13.03
2023-05-18T05:07:48.392Z,13.64
2023-05-18T05:10:16.303Z,13.64
2023-05-18T05:12:43.995Z,13.66
2023-05-18T05:15:11.778Z,13.86
2023-05-18T05:17:39.512Z,13.30
2023-05-18T05:20:08.091Z,14.01
2023-05-18T05:22:37.130Z,14.43
2023-05-18T05:25:06.237Z,14.77
2023-05-18T05:27:34.241Z,14.69
2023-05-18T05:30:02.134Z,14.95
2023-05-18T05:32:29.835Z,15.18
2023-05-18T05:34:57.557Z,14.91
2023-05-18T05:37:25.333Z,15.32
2023-05-18T05:39:56.791Z,14.93
2023-05-18T05:42:25.523Z,15.84
2023-05-18T05:44:53.260Z,15.75
2023-05-18T05:47:20.888Z,15.43
2023-05-18T05:49:48.520Z,15.89
2023-05-18T05:52:16.357Z,15.97
2023-05-18T05:54:44.418Z,16.49
2023-05-18T05:57:13.377Z,16.84
2023-05-18T05:59:41.015Z,16.48
2023-05-18T06:02:08.661Z,16.64
2023-05-18T06:04:36.523Z,16.31
2023-05-18T06:07:04.359Z,16.09
2023-05-18T06:09:31.971Z,16.38
2023-05-18T06:11:59.590Z,16.90
2023-05-18T06:14:28.828Z,17.65
2023-05-18T06:17:15.006Z,18.09
2023-05-18T06:19:43.473Z,18.20
2023-05-18T06:22:11.232Z,18.45
2023-05-18T06:24:41.031Z,18.76
2023-05-18T06:27:10.250Z,19.17
2023-05-18T06:29:44.576Z,19.73
2023-05-18T06:32:14.212Z,19.83
